createdAt,value
2022-12-14T00:03:35.551Z,0.10
2022-12-14T00:08:41.693Z,0.10
2022-12-14T00:13:44.149Z,0.00
2022-12-14T00:18:53.758Z,0.25
2022-12-14T00:23:58.069Z,0.20
2022-12-14T00:29:01.486Z,0.00
2022-12-14T00:34:05.205Z,0.00
2022-12-14T00:39:07.131Z,0.15
2022-12-14T00:44:09.067Z,0.10
2022-12-14T00:49:12.788Z,0.00
2022-12-14T00:54:14.737Z,1.65
2022-12-14T00:59:18.631Z,0.00
2022-12-14T01:04:24.631Z,0.17
2022-12-14T01:09:26.967Z,0.98
2022-12-14T01:14:28.906Z,0.47
2022-12-14T01:19:32.418Z,0.10
2022-12-14T01:24:34.360Z,0.03
2022-12-14T01:29:36.935Z,0.38
2022-12-14T01:34:40.212Z,0.20
2022-12-14T01:39:42.212Z,0.00
2022-12-14T01:44:54.479Z,0.05
2022-12-14T01:50:02.087Z,0.35
2022-12-14T01:55:07.544Z,0.52
2022-12-14T02:05:15.967Z,0.57
2022-12-14T02:10:18.365Z,0.43
2022-12-14T02:15:20.403Z,0.00
2022-12-14T02:20:28.872Z,0.52
2022-12-14T02:26:10.070Z,0.20
2022-12-14T02:31:18.798Z,0.20
2022-12-14T02:36:30.409Z,0.35
2022-12-14T02:41:38.453Z,1.00
2022-12-14T02:46:50.655Z,1.00
2022-12-14T02:51:57.381Z,0.22
2022-12-14T02:57:20.425Z,0.50
2022-12-14T03:02:25.241Z,2.10
2022-12-14T03:07:34.360Z,0.10
2022-12-14T03:12:41.248Z,0.00
2022-12-14T03:17:49.288Z,3.40
2022-12-14T03:22:56.739Z,0.40
2022-12-14T03:28:05.225Z,0.10
2022-12-14T03:33:13.371Z,1.02
2022-12-14T03:38:22.668Z,0.08
2022-12-14T03:43:35.039Z,10.35
2022-12-14T03:48:43.519Z,0.28
2022-12-14T03:53:50.421Z,0.57
2022-12-14T03:59:01.678Z,0.20
2022-12-14T04:04:09.646Z,2.53
2022-12-14T04:09:22.585Z,0.17
2022-12-14T04:14:49.900Z,0.38
2022-12-14T04:20:00.501Z,0.45
2022-12-14T04:25:24.568Z,0.30
2022-12-14T04:30:28.259Z,0.40
2022-12-14T04:35:36.691Z,0.43
2022-12-14T04:40:43.584Z,0.35
2022-12-14T04:45:51.508Z,3.97
2022-12-14T04:51:03.171Z,4.63
2022-12-14T05:01:26.378Z,1.75
2022-12-14T05:11:57.467Z,4.88
2022-12-14T05:22:09.858Z,10.60
2022-12-14T05:27:11.935Z,3.80
2022-12-14T05:32:13.950Z,1.48
2022-12-14T05:37:18.600Z,3.40
2022-12-14T05:42:20.631Z,1.02
2022-12-14T05:47:22.625Z,5.15
2022-12-14T05:52:26.724Z,1.23
2022-12-14T05:57:28.812Z,0.10
2022-12-14T06:02:30.862Z,2.90
2022-12-14T06:07:34.269Z,1.35
2022-12-14T06:12:36.209Z,5.65
2022-12-14T06:17:42.720Z,5.13
2022-12-14T06:22:47.860Z,4.10
2022-12-14T06:32:54.501Z,3.38
2022-12-14T06:37:57.772Z,1.13
2022-12-14T06:42:59.717Z,2.58
2022-12-14T06:48:01.678Z,2.80
2022-12-14T06:53:04.946Z,3.22
2022-12-14T06:58:07.163Z,1.67
2022-12-14T07:03:10.016Z,4.88
2022-12-14T07:08:13.442Z,8.57
2022-12-14T07:13:15.724Z,1.58
2022-12-14T07:18:21.197Z,3.85
2022-12-14T07:23:27.921Z,0.75
2022-12-14T07:28:30.843Z,2.03
2022-12-14T07:33:32.829Z,1.63
2022-12-14T07:38:37.965Z,1.90
2022-12-14T07:43:40.714Z,2.58
2022-12-14T07:48:44.327Z,2.22
2022-12-14T07:53:48.557Z,8.95
2022-12-14T07:58:51.078Z,4.57
2022-12-14T08:03:54.891Z,1.75
2022-12-14T08:08:58.774Z,7.68
2022-12-14T08:14:02.825Z,7.88
2022-12-14T08:19:04.866Z,7.82
2022-12-14T08:24:10.379Z,4.00
2022-12-14T08:29:14.719Z,4.82
2022-12-14T08:34:22.559Z,8.18
2022-12-14T08:39:25.927Z,6.85
2022-12-14T08:44:27.877Z,7.75
2022-12-14T08:49:32.452Z,7.47
2022-12-14T08:54:36.122Z,12.93
2022-12-14T09:00:00.618Z,13.18
2022-12-14T09:05:00.077Z,17.27
2022-12-14T09:10:03.635Z,10.60
2022-12-14T09:15:06.518Z,10.77
2022-12-14T09:20:09.799Z,9.15
2022-12-14T09:25:13.119Z,6.47
2022-12-14T09:30:15.597Z,3.35
2022-12-14T09:35:17.896Z,41.25
2022-12-14T09:40:24.635Z,13.30
2022-12-14T09:45:34.036Z,22.70
2022-12-14T09:50:37.518Z,26.30
2022-12-14T09:55:43.259Z,27.00
2022-12-14T10:00:53.600Z,14.00
2022-12-14T10:11:32.265Z,23.58
2022-12-14T10:16:48.523Z,22.02
2022-12-14T10:21:57.387Z,38.10
2022-12-14T10:27:03.034Z,40.17
2022-12-14T10:32:15.982Z,33.75
2022-12-14T10:37:25.688Z,30.77
2022-12-14T10:42:38.036Z,24.30
2022-12-14T10:47:42.845Z,46.42
2022-12-14T10:52:48.234Z,39.03
2022-12-14T10:57:53.227Z,40.75
2022-12-14T11:02:58.256Z,38.00
2022-12-14T11:08:00.637Z,34.33
2022-12-14T11:13:06.451Z,37.33
2022-12-14T11:18:24.231Z,33.05
2022-12-14T11:23:28.578Z,73.13
2022-12-14T11:28:37.526Z,15.38
2022-12-14T11:33:44.683Z,34.58
2022-12-14T11:38:57.305Z,12.27
2022-12-14T11:44:23.185Z,20.73
2022-12-14T11:49:27.683Z,5.22
2022-12-14T11:54:30.487Z,11.20
2022-12-14T11:59:39.498Z,9.85
2022-12-14T12:04:47.420Z,6.85
2022-12-14T12:09:51.882Z,4.20
2022-12-14T12:14:57.446Z,6.20
2022-12-14T12:20:00.103Z,12.63
2022-12-14T12:25:25.809Z,5.72
2022-12-14T12:30:34.214Z,5.53
2022-12-14T12:35:43.159Z,7.97
2022-12-14T12:40:54.982Z,36.03
2022-12-14T12:46:02.130Z,29.42
2022-12-14T12:51:09.949Z,28.95
2022-12-14T12:56:15.102Z,12.50
2022-12-14T13:01:28.078Z,6.32
2022-12-14T13:06:40.487Z,8.32
2022-12-14T13:16:46.446Z,5.47
2022-12-14T13:21:50.790Z,12.63
2022-12-14T13:27:23.774Z,8.27
2022-12-14T13:32:40.842Z,10.45
2022-12-14T13:37:57.632Z,12.23
2022-12-14T13:43:14.465Z,10.77
2022-12-14T13:48:23.558Z,21.27
2022-12-14T13:53:31.666Z,9.38
2022-12-14T13:58:38.683Z,18.30
2022-12-14T14:03:46.274Z,13.52
2022-12-14T14:08:50.254Z,7.47
2022-12-14T14:14:17.757Z,10.90
2022-12-14T14:19:26.924Z,7.82
2022-12-14T14:24:29.878Z,36.20
2022-12-14T14:29:32.410Z,25.48
2022-12-14T14:34:47.601Z,13.90
2022-12-14T14:40:10.250Z,13.82
2022-12-14T14:45:30.899Z,15.48
2022-12-14T14:50:36.956Z,17.75
2022-12-14T14:55:53.782Z,21.88
2022-12-14T15:01:14.809Z,9.88
2022-12-14T15:06:23.719Z,11.68
2022-12-14T15:11:29.120Z,14.93
2022-12-14T15:16:33.544Z,11.10
2022-12-14T15:26:41.804Z,18.17
2022-12-14T15:31:45.365Z,14.10
2022-12-14T15:36:49.801Z,22.42
2022-12-14T15:42:00.979Z,18.00
2022-12-14T15:47:03.078Z,18.17
2022-12-14T15:52:09.573Z,11.25
2022-12-14T15:57:17.587Z,9.85
2022-12-14T16:02:25.296Z,8.55
2022-12-14T16:07:36.323Z,20.15
2022-12-14T16:17:47.908Z,22.52
2022-12-14T16:23:01.432Z,22.67
2022-12-14T16:28:21.923Z,38.33
2022-12-14T16:33:25.084Z,45.20
2022-12-14T16:38:29.487Z,33.03
2022-12-14T16:43:35.251Z,38.85
2022-12-14T16:48:40.970Z,35.90
2022-12-14T16:53:50.604Z,42.63
2022-12-14T16:58:55.324Z,39.53
2022-12-14T17:04:02.641Z,48.05
2022-12-14T17:09:06.656Z,38.33
2022-12-14T17:14:08.787Z,42.85
2022-12-14T17:19:18.741Z,60.63
2022-12-14T17:24:22.537Z,52.42
2022-12-14T17:29:27.492Z,49.92
2022-12-14T17:34:30.347Z,47.03
2022-12-14T17:39:35.638Z,47.60
2022-12-14T17:44:39.698Z,31.63
2022-12-14T17:49:43.120Z,15.48
2022-12-14T17:54:47.201Z,30.85
2022-12-14T18:00:10.302Z,48.72
2022-12-14T18:05:19.191Z,23.80
2022-12-14T18:10:22.926Z,41.97
2022-12-14T18:15:27.700Z,25.27
2022-12-14T18:20:30.240Z,42.83
2022-12-14T18:25:36.963Z,26.02
2022-12-14T18:30:49.025Z,29.15
2022-12-14T18:35:53.117Z,36.92
2022-12-14T18:40:58.673Z,32.63
2022-12-14T18:46:01.547Z,37.08
2022-12-14T18:51:04.334Z,24.70
2022-12-14T18:56:11.518Z,25.75
2022-12-14T19:01:16.245Z,26.45
2022-12-14T19:11:45.004Z,33.03
2022-12-14T19:16:47.103Z,38.75
2022-12-14T19:21:49.277Z,33.90
2022-12-14T19:26:53.136Z,43.20
2022-12-14T19:31:58.061Z,24.65
2022-12-14T19:37:03.985Z,40.65
2022-12-14T19:42:07.522Z,40.78
2022-12-14T19:47:09.937Z,35.28
2022-12-14T19:52:14.935Z,17.77
2022-12-14T19:57:18.521Z,40.67
2022-12-14T20:02:20.799Z,30.52
2022-12-14T20:07:23.378Z,41.53
2022-12-14T20:12:27.016Z,39.65
2022-12-14T20:17:29.421Z,37.20
2022-12-14T20:22:31.972Z,39.50
2022-12-14T20:27:40.456Z,26.35
2022-12-14T20:32:43.381Z,29.88
2022-12-14T20:37:53.044Z,23.67
2022-12-14T20:42:56.535Z,24.75
2022-12-14T20:47:58.696Z,29.30
2022-12-14T20:53:00.791Z,24.73
2022-12-14T20:58:04.400Z,30.52
2022-12-14T21:03:06.473Z,32.95
2022-12-14T21:08:09.697Z,19.75
2022-12-14T21:13:12.985Z,17.63
2022-12-14T21:18:14.929Z,58.03
2022-12-14T21:23:16.866Z,38.03
2022-12-14T21:28:20.117Z,45.30
2022-12-14T21:33:22.051Z,80.88
2022-12-14T21:38:24.215Z,26.67
2022-12-14T21:43:27.901Z,41.38
2022-12-14T21:48:30.086Z,44.85
2022-12-14T21:53:35.386Z,53.22
2022-12-14T21:58:38.996Z,55.65
2022-12-14T22:03:40.991Z,43.72
2022-12-14T22:08:43.000Z,40.00
2022-12-14T22:13:46.262Z,61.30
2022-12-14T22:18:48.212Z,47.05
2022-12-14T22:23:51.025Z,40.58
2022-12-14T22:28:54.417Z,33.50
2022-12-14T22:33:56.327Z,37.03
2022-12-14T22:38:59.712Z,55.40
2022-12-14T22:44:03.933Z,63.25
2022-12-14T22:49:05.965Z,59.83
2022-12-14T22:54:07.887Z,43.22
2022-12-14T22:59:16.056Z,48.38
2022-12-14T23:04:18.228Z,39.38
2022-12-14T23:09:38.769Z,35.20
2022-12-14T23:15:00.427Z,22.20
2022-12-14T23:20:20.917Z,21.10
2022-12-14T23:25:41.332Z,16.42
2022-12-14T23:31:03.220Z,19.13
2022-12-14T23:36:24.505Z,16.35
2022-12-14T23:41:45.314Z,18.48
2022-12-14T23:47:07.217Z,15.18
2022-12-14T23:52:27.727Z,13.90
2022-12-14T23:57:48.052Z,16.85
